sensor_id;sensor_type;location;lat;lon;timestamp;P1;durP1;ratioP1;P2;durP2;ratioP2
53751;SDS011;41095;53.090;6.692;2022-09-09T00:04:34;9.07;;;6.93;;
53751;SDS011;41095;53.090;6.692;2022-09-09T00:07:21;8.18;;;6.45;;
53751;SDS011;41095;53.090;6.692;2022-09-09T00:10:19;6.72;;;5.90;;
53751;SDS011;41095;53.090;6.692;2022-09-09T00:16:00;8.60;;;5.85;;
53751;SDS011;41095;53.090;6.692;2022-09-09T00:18:40;8.03;;;6.20;;
53751;SDS011;41095;53.090;6.692;2022-09-09T00:21:15;7.30;;;5.65;;
53751;SDS011;41095;53.090;6.692;2022-09-09T00:23:55;7.18;;;6.15;;
53751;SDS011;41095;53.090;6.692;2022-09-09T00:32:11;8.68;;;6.90;;
53751;SDS011;41095;53.090;6.692;2022-09-09T00:34:46;11.35;;;7.22;;
53751;SDS011;41095;53.090;6.692;2022-09-09T00:37:24;9.35;;;7.63;;
53751;SDS011;41095;53.090;6.692;2022-09-09T00:39:51;8.70;;;6.07;;
53751;SDS011;41095;53.090;6.692;2022-09-09T00:42:26;11.50;;;7.05;;
53751;SDS011;41095;53.090;6.692;2022-09-09T00:45:52;6.30;;;5.35;;
53751;SDS011;41095;53.090;6.692;2022-09-09T00:48:10;7.15;;;5.65;;
53751;SDS011;41095;53.090;6.692;2022-09-09T00:50:52;10.00;;;6.05;;
53751;SDS011;41095;53.090;6.692;2022-09-09T00:53:31;8.70;;;6.43;;
53751;SDS011;41095;53.090;6.692;2022-09-09T00:56:20;8.73;;;7.30;;
53751;SDS011;41095;53.090;6.692;2022-09-09T00:58:54;10.33;;;6.30;;
53751;SDS011;41095;53.090;6.692;2022-09-09T01:01:23;8.25;;;7.10;;
53751;SDS011;41095;53.090;6.692;2022-09-09T01:06:31;10.23;;;7.55;;
53751;SDS011;41095;53.090;6.692;2022-09-09T01:13:58;12.25;;;6.63;;
53751;SDS011;41095;53.090;6.692;2022-09-09T01:16:35;11.25;;;7.25;;
53751;SDS011;41095;53.090;6.692;2022-09-09T01:19:01;7.18;;;6.43;;
53751;SDS011;41095;53.090;6.692;2022-09-09T01:21:35;8.50;;;6.40;;
53751;SDS011;41095;53.090;6.692;2022-09-09T01:26:56;9.85;;;7.00;;
53751;SDS011;41095;53.090;6.692;2022-09-09T01:29:25;10.27;;;7.28;;
53751;SDS011;41095;53.090;6.692;2022-09-09T01:31:58;9.85;;;6.75;;
53751;SDS011;41095;53.090;6.692;2022-09-09T01:34:47;13.32;;;7.07;;
53751;SDS011;41095;53.090;6.692;2022-09-09T01:37:13;10.40;;;6.50;;
53751;SDS011;41095;53.090;6.692;2022-09-09T01:39:40;10.52;;;7.47;;
53751;SDS011;41095;53.090;6.692;2022-09-09T01:42:09;12.05;;;7.45;;
53751;SDS011;41095;53.090;6.692;2022-09-09T01:44:37;10.27;;;6.68;;
53751;SDS011;41095;53.090;6.692;2022-09-09T01:47:03;10.50;;;6.43;;
53751;SDS011;41095;53.090;6.692;2022-09-09T01:49:30;8.25;;;6.28;;
53751;SDS011;41095;53.090;6.692;2022-09-09T01:51:57;10.13;;;7.30;;
53751;SDS011;41095;53.090;6.692;2022-09-09T01:54:24;7.72;;;6.88;;
53751;SDS011;41095;53.090;6.692;2022-09-09T01:56:58;10.27;;;6.78;;
53751;SDS011;41095;53.090;6.692;2022-09-09T01:59:48;9.40;;;7.25;;
53751;SDS011;41095;53.090;6.692;2022-09-09T02:02:46;9.70;;;7.13;;
53751;SDS011;41095;53.090;6.692;2022-09-09T02:05:33;8.35;;;7.55;;
53751;SDS011;41095;53.090;6.692;2022-09-09T02:08:09;12.05;;;7.50;;
53751;SDS011;41095;53.090;6.692;2022-09-09T02:13:32;10.35;;;7.10;;
53751;SDS011;41095;53.090;6.692;2022-09-09T02:16:03;11.13;;;7.07;;
53751;SDS011;41095;53.090;6.692;2022-09-09T02:18:32;13.10;;;6.85;;
53751;SDS011;41095;53.090;6.692;2022-09-09T02:21:12;11.25;;;7.40;;
53751;SDS011;41095;53.090;6.692;2022-09-09T02:23:39;8.65;;;6.70;;
53751;SDS011;41095;53.090;6.692;2022-09-09T02:26:07;9.57;;;6.68;;
53751;SDS011;41095;53.090;6.692;2022-09-09T02:28:35;11.07;;;6.78;;
53751;SDS011;41095;53.090;6.692;2022-09-09T02:31:04;12.35;;;7.95;;
53751;SDS011;41095;53.090;6.692;2022-09-09T02:33:32;11.48;;;7.38;;
53751;SDS011;41095;53.090;6.692;2022-09-09T02:36:02;10.88;;;7.20;;
53751;SDS011;41095;53.090;6.692;2022-09-09T02:38:33;11.25;;;7.25;;
53751;SDS011;41095;53.090;6.692;2022-09-09T02:41:04;8.20;;;6.10;;
53751;SDS011;41095;53.090;6.692;2022-09-09T02:43:34;11.73;;;7.07;;
53751;SDS011;41095;53.090;6.692;2022-09-09T02:49:15;8.10;;;6.68;;
53751;SDS011;41095;53.090;6.692;2022-09-09T02:54:35;10.20;;;7.03;;
53751;SDS011;41095;53.090;6.692;2022-09-09T02:57:08;10.25;;;6.85;;
53751;SDS011;41095;53.090;6.692;2022-09-09T02:59:37;10.48;;;6.55;;
53751;SDS011;41095;53.090;6.692;2022-09-09T03:02:03;9.13;;;6.28;;
53751;SDS011;41095;53.090;6.692;2022-09-09T03:04:29;9.35;;;6.70;;
53751;SDS011;41095;53.090;6.692;2022-09-09T03:06:56;9.48;;;5.63;;
53751;SDS011;41095;53.090;6.692;2022-09-09T03:09:23;10.30;;;6.47;;
53751;SDS011;41095;53.090;6.692;2022-09-09T03:11:49;8.40;;;5.57;;
53751;SDS011;41095;53.090;6.692;2022-09-09T03:14:15;9.02;;;6.32;;
53751;SDS011;41095;53.090;6.692;2022-09-09T03:16:41;6.25;;;5.10;;
53751;SDS011;41095;53.090;6.692;2022-09-09T03:19:08;8.40;;;5.40;;
53751;SDS011;41095;53.090;6.692;2022-09-09T03:21:34;7.80;;;5.68;;
53751;SDS011;41095;53.090;6.692;2022-09-09T03:24:01;7.63;;;4.90;;
53751;SDS011;41095;53.090;6.692;2022-09-09T03:26:28;7.20;;;5.40;;
53751;SDS011;41095;53.090;6.692;2022-09-09T03:28:55;7.95;;;4.75;;
53751;SDS011;41095;53.090;6.692;2022-09-09T03:31:21;8.00;;;4.95;;
53751;SDS011;41095;53.090;6.692;2022-09-09T03:33:47;5.57;;;4.28;;
53751;SDS011;41095;53.090;6.692;2022-09-09T03:36:13;6.65;;;4.70;;
53751;SDS011;41095;53.090;6.692;2022-09-09T03:38:40;6.53;;;4.60;;
53751;SDS011;41095;53.090;6.692;2022-09-09T03:41:06;10.10;;;5.32;;
53751;SDS011;41095;53.090;6.692;2022-09-09T03:43:32;10.48;;;5.25;;
53751;SDS011;41095;53.090;6.692;2022-09-09T03:45:59;10.95;;;5.63;;
53751;SDS011;41095;53.090;6.692;2022-09-09T03:48:24;7.28;;;5.20;;
53751;SDS011;41095;53.090;6.692;2022-09-09T03:50:53;9.73;;;4.65;;
53751;SDS011;41095;53.090;6.692;2022-09-09T03:53:23;7.15;;;4.60;;
53751;SDS011;41095;53.090;6.692;2022-09-09T03:55:50;4.53;;;4.00;;
53751;SDS011;41095;53.090;6.692;2022-09-09T03:58:19;9.30;;;5.00;;
53751;SDS011;41095;53.090;6.692;2022-09-09T04:01:19;7.30;;;4.47;;
53751;SDS011;41095;53.090;6.692;2022-09-09T04:03:38;7.35;;;4.38;;
53751;SDS011;41095;53.090;6.692;2022-09-09T04:06:05;5.30;;;4.03;;
53751;SDS011;41095;53.090;6.692;2022-09-09T04:08:33;5.05;;;3.80;;
53751;SDS011;41095;53.090;6.692;2022-09-09T04:11:00;6.55;;;3.60;;
53751;SDS011;41095;53.090;6.692;2022-09-09T04:13:30;4.60;;;3.28;;
53751;SDS011;41095;53.090;6.692;2022-09-09T04:15:59;3.85;;;2.85;;
53751;SDS011;41095;53.090;6.692;2022-09-09T04:18:26;5.78;;;3.63;;
53751;SDS011;41095;53.090;6.692;2022-09-09T04:20:53;4.05;;;2.80;;
53751;SDS011;41095;53.090;6.692;2022-09-09T04:23:22;5.97;;;2.45;;
53751;SDS011;41095;53.090;6.692;2022-09-09T04:25:52;3.60;;;3.30;;
53751;SDS011;41095;53.090;6.692;2022-09-09T04:28:19;4.60;;;2.95;;
53751;SDS011;41095;53.090;6.692;2022-09-09T04:30:46;3.95;;;3.03;;
53751;SDS011;41095;53.090;6.692;2022-09-09T04:33:12;5.70;;;3.63;;
53751;SDS011;41095;53.090;6.692;2022-09-09T04:35:39;5.82;;;4.30;;
53751;SDS011;41095;53.090;6.692;2022-09-09T04:38:10;6.45;;;3.80;;
53751;SDS011;41095;53.090;6.692;2022-09-09T04:40:35;33.88;;;4.22;;
53751;SDS011;41095;53.090;6.692;2022-09-09T04:43:02;6.32;;;3.95;;
53751;SDS011;41095;53.090;6.692;2022-09-09T04:45:31;4.72;;;3.78;;
53751;SDS011;41095;53.090;6.692;2022-09-09T04:47:58;5.35;;;4.03;;
53751;SDS011;41095;53.090;6.692;2022-09-09T04:50:24;7.78;;;4.30;;
53751;SDS011;41095;53.090;6.692;2022-09-09T04:52:50;9.40;;;5.45;;
53751;SDS011;41095;53.090;6.692;2022-09-09T04:55:16;8.10;;;4.47;;
53751;SDS011;41095;53.090;6.692;2022-09-09T04:57:42;7.18;;;5.03;;
53751;SDS011;41095;53.090;6.692;2022-09-09T05:00:08;6.90;;;4.10;;
53751;SDS011;41095;53.090;6.692;2022-09-09T05:02:38;6.07;;;4.40;;
53751;SDS011;41095;53.090;6.692;2022-09-09T05:05:05;5.93;;;4.50;;
53751;SDS011;41095;53.090;6.692;2022-09-09T05:07:31;7.78;;;6.15;;
53751;SDS011;41095;53.090;6.692;2022-09-09T05:09:57;7.70;;;4.85;;
53751;SDS011;41095;53.090;6.692;2022-09-09T05:12:23;7.25;;;5.78;;
53751;SDS011;41095;53.090;6.692;2022-09-09T05:14:51;8.70;;;5.60;;
53751;SDS011;41095;53.090;6.692;2022-09-09T05:17:17;7.90;;;6.38;;
53751;SDS011;41095;53.090;6.692;2022-09-09T05:19:43;10.57;;;7.22;;
53751;SDS011;41095;53.090;6.692;2022-09-09T05:22:09;10.63;;;7.70;;
53751;SDS011;41095;53.090;6.692;2022-09-09T05:24:37;7.40;;;5.97;;
53751;SDS011;41095;53.090;6.692;2022-09-09T05:27:03;8.65;;;7.43;;
53751;SDS011;41095;53.090;6.692;2022-09-09T05:29:31;9.70;;;6.50;;
53751;SDS011;41095;53.090;6.692;2022-09-09T05:31:58;9.23;;;7.00;;
53751;SDS011;41095;53.090;6.692;2022-09-09T05:34:24;7.45;;;5.88;;
53751;SDS011;41095;53.090;6.692;2022-09-09T05:36:50;8.73;;;6.57;;
53751;SDS011;41095;53.090;6.692;2022-09-09T05:39:17;8.70;;;6.45;;
53751;SDS011;41095;53.090;6.692;2022-09-09T05:41:43;10.82;;;7.47;;
53751;SDS011;41095;53.090;6.692;2022-09-09T05:44:09;10.70;;;6.95;;
53751;SDS011;41095;53.090;6.692;2022-09-09T05:46:34;9.57;;;6.20;;
53751;SDS011;41095;53.090;6.692;2022-09-09T05:49:01;11.77;;;7.25;;
53751;SDS011;41095;53.090;6.692;2022-09-09T05:51:28;13.52;;;7.93;;
53751;SDS011;41095;53.090;6.692;2022-09-09T05:53:57;8.38;;;6.25;;
53751;SDS011;41095;53.090;6.692;2022-09-09T05:56:24;9.15;;;6.43;;
53751;SDS011;41095;53.090;6.692;2022-09-09T05:58:51;9.70;;;5.70;;
53751;SDS011;41095;53.090;6.692;2022-09-09T06:03:46;10.77;;;6.22;;
53751;SDS011;41095;53.090;6.692;2022-09-09T06:06:18;7.65;;;5.63;;
53751;SDS011;41095;53.090;6.692;2022-09-09T06:08:45;8.02;;;5.75;;
53751;SDS011;41095;53.090;6.692;2022-09-09T06:11:13;8.68;;;5.93;;
53751;SDS011;41095;53.090;6.692;2022-09-09T06:13:47;8.00;;;6.32;;
53751;SDS011;41095;53.090;6.692;2022-09-09T06:16:20;8.32;;;6.13;;
53751;SDS011;41095;53.090;6.692;2022-09-09T06:18:53;8.68;;;5.10;;
53751;SDS011;41095;53.090;6.692;2022-09-09T06:21:24;8.73;;;6.00;;
53751;SDS011;41095;53.090;6.692;2022-09-09T06:23:56;8.73;;;6.07;;
53751;SDS011;41095;53.090;6.692;2022-09-09T06:26:25;9.63;;;6.50;;
53751;SDS011;41095;53.090;6.692;2022-09-09T06:29:09;6.18;;;4.80;;
53751;SDS011;41095;53.090;6.692;2022-09-09T06:31:43;10.90;;;6.78;;
53751;SDS011;41095;53.090;6.692;2022-09-09T06:34:47;11.55;;;6.68;;
53751;SDS011;41095;53.090;6.692;2022-09-09T06:37:23;8.40;;;5.80;;
53751;SDS011;41095;53.090;6.692;2022-09-09T06:39:51;7.68;;;5.53;;
53751;SDS011;41095;53.090;6.692;2022-09-09T06:42:17;8.13;;;5.40;;
53751;SDS011;41095;53.090;6.692;2022-09-09T06:45:03;9.45;;;4.97;;
53751;SDS011;41095;53.090;6.692;2022-09-09T06:47:31;8.95;;;5.28;;
53751;SDS011;41095;53.090;6.692;2022-09-09T06:50:18;6.05;;;4.93;;
53751;SDS011;41095;53.090;6.692;2022-09-09T06:52:45;9.88;;;5.80;;
53751;SDS011;41095;53.090;6.692;2022-09-09T06:55:13;8.63;;;5.65;;
53751;SDS011;41095;53.090;6.692;2022-09-09T06:57:42;9.18;;;5.72;;
53751;SDS011;41095;53.090;6.692;2022-09-09T07:00:13;7.78;;;5.50;;
53751;SDS011;41095;53.090;6.692;2022-09-09T07:02:48;8.93;;;5.63;;
53751;SDS011;41095;53.090;6.692;2022-09-09T07:05:37;6.88;;;5.13;;
53751;SDS011;41095;53.090;6.692;2022-09-09T07:08:04;9.90;;;4.80;;
53751;SDS011;41095;53.090;6.692;2022-09-09T07:10:34;7.53;;;4.95;;
53751;SDS011;41095;53.090;6.692;2022-09-09T07:13:06;6.57;;;5.22;;
53751;SDS011;41095;53.090;6.692;2022-09-09T07:15:38;5.28;;;3.85;;
53751;SDS011;41095;53.090;6.692;2022-09-09T07:18:14;7.93;;;5.03;;
53751;SDS011;41095;53.090;6.692;2022-09-09T07:20:40;6.90;;;4.45;;
53751;SDS011;41095;53.090;6.692;2022-09-09T07:23:09;7.93;;;5.30;;
53751;SDS011;41095;53.090;6.692;2022-09-09T07:25:35;8.75;;;4.80;;
53751;SDS011;41095;53.090;6.692;2022-09-09T07:28:02;9.23;;;4.63;;
53751;SDS011;41095;53.090;6.692;2022-09-09T07:30:36;6.53;;;4.50;;
53751;SDS011;41095;53.090;6.692;2022-09-09T07:33:06;9.32;;;5.28;;
53751;SDS011;41095;53.090;6.692;2022-09-09T07:35:32;9.05;;;4.18;;
53751;SDS011;41095;53.090;6.692;2022-09-09T07:38:05;6.65;;;4.30;;
53751;SDS011;41095;53.090;6.692;2022-09-09T07:40:32;11.18;;;4.40;;
53751;SDS011;41095;53.090;6.692;2022-09-09T07:42:59;6.45;;;4.50;;
53751;SDS011;41095;53.090;6.692;2022-09-09T07:45:31;5.60;;;4.00;;
53751;SDS011;41095;53.090;6.692;2022-09-09T07:47:59;7.22;;;4.60;;
53751;SDS011;41095;53.090;6.692;2022-09-09T07:50:28;8.77;;;4.05;;
53751;SDS011;41095;53.090;6.692;2022-09-09T07:52:56;7.32;;;4.70;;
53751;SDS011;41095;53.090;6.692;2022-09-09T07:55:30;7.32;;;3.95;;
53751;SDS011;41095;53.090;6.692;2022-09-09T07:57:55;8.05;;;4.72;;
53751;SDS011;41095;53.090;6.692;2022-09-09T08:00:24;7.60;;;3.67;;
53751;SDS011;41095;53.090;6.692;2022-09-09T08:03:05;8.20;;;3.45;;
53751;SDS011;41095;53.090;6.692;2022-09-09T08:05:37;8.70;;;5.38;;
53751;SDS011;41095;53.090;6.692;2022-09-09T08:08:10;5.28;;;3.95;;
53751;SDS011;41095;53.090;6.692;2022-09-09T08:10:36;8.05;;;3.45;;
53751;SDS011;41095;53.090;6.692;2022-09-09T08:13:02;7.95;;;3.80;;
53751;SDS011;41095;53.090;6.692;2022-09-09T08:15:28;5.57;;;3.80;;
53751;SDS011;41095;53.090;6.692;2022-09-09T08:17:56;5.65;;;4.03;;
53751;SDS011;41095;53.090;6.692;2022-09-09T08:20:22;4.53;;;3.17;;
53751;SDS011;41095;53.090;6.692;2022-09-09T08:22:48;5.65;;;3.47;;
53751;SDS011;41095;53.090;6.692;2022-09-09T08:25:31;5.68;;;3.17;;
53751;SDS011;41095;53.090;6.692;2022-09-09T08:27:56;5.32;;;3.05;;
53751;SDS011;41095;53.090;6.692;2022-09-09T08:30:24;5.10;;;3.30;;
53751;SDS011;41095;53.090;6.692;2022-09-09T08:32:50;5.05;;;3.35;;
53751;SDS011;41095;53.090;6.692;2022-09-09T08:35:16;7.10;;;3.22;;
53751;SDS011;41095;53.090;6.692;2022-09-09T08:37:45;4.78;;;3.50;;
53751;SDS011;41095;53.090;6.692;2022-09-09T08:40:27;4.15;;;3.03;;
53751;SDS011;41095;53.090;6.692;2022-09-09T08:43:06;5.05;;;3.13;;
53751;SDS011;41095;53.090;6.692;2022-09-09T08:45:55;3.17;;;2.88;;
53751;SDS011;41095;53.090;6.692;2022-09-09T08:48:39;6.70;;;4.25;;
53751;SDS011;41095;53.090;6.692;2022-09-09T08:51:31;5.40;;;3.60;;
53751;SDS011;41095;53.090;6.692;2022-09-09T08:53:59;5.18;;;3.63;;
53751;SDS011;41095;53.090;6.692;2022-09-09T08:56:34;7.28;;;3.95;;
53751;SDS011;41095;53.090;6.692;2022-09-09T08:59:01;5.15;;;3.75;;
53751;SDS011;41095;53.090;6.692;2022-09-09T09:06:56;8.35;;;3.92;;
53751;SDS011;41095;53.090;6.692;2022-09-09T09:10:04;5.85;;;3.58;;
53751;SDS011;41095;53.090;6.692;2022-09-09T09:12:50;3.85;;;3.53;;
53751;SDS011;41095;53.090;6.692;2022-09-09T09:15:21;7.35;;;3.40;;
53751;SDS011;41095;53.090;6.692;2022-09-09T09:18:10;4.93;;;3.53;;
53751;SDS011;41095;53.090;6.692;2022-09-09T09:20:49;5.97;;;3.80;;
53751;SDS011;41095;53.090;6.692;2022-09-09T09:23:36;6.20;;;3.70;;
53751;SDS011;41095;53.090;6.692;2022-09-09T09:26:23;4.03;;;3.40;;
53751;SDS011;41095;53.090;6.692;2022-09-09T09:28:55;8.05;;;3.70;;
53751;SDS011;41095;53.090;6.692;2022-09-09T09:31:24;6.90;;;3.20;;
53751;SDS011;41095;53.090;6.692;2022-09-09T09:34:07;9.10;;;3.53;;
53751;SDS011;41095;53.090;6.692;2022-09-09T09:36:34;5.22;;;4.20;;
53751;SDS011;41095;53.090;6.692;2022-09-09T09:39:06;6.57;;;3.63;;
53751;SDS011;41095;53.090;6.692;2022-09-09T09:41:38;3.05;;;2.67;;
53751;SDS011;41095;53.090;6.692;2022-09-09T09:47:16;7.78;;;2.97;;
53751;SDS011;41095;53.090;6.692;2022-09-09T09:49:59;6.47;;;2.75;;
53751;SDS011;41095;53.090;6.692;2022-09-09T09:52:29;7.13;;;2.90;;
53751;SDS011;41095;53.090;6.692;2022-09-09T09:54:59;3.15;;;2.28;;
53751;SDS011;41095;53.090;6.692;2022-09-09T09:57:30;5.70;;;2.92;;
53751;SDS011;41095;53.090;6.692;2022-09-09T10:00:19;6.30;;;2.97;;
53751;SDS011;41095;53.090;6.692;2022-09-09T10:02:47;4.55;;;2.65;;
53751;SDS011;41095;53.090;6.692;2022-09-09T10:05:28;7.65;;;2.72;;
53751;SDS011;41095;53.090;6.692;2022-09-09T10:08:15;5.38;;;2.97;;
53751;SDS011;41095;53.090;6.692;2022-09-09T10:19:51;3.15;;;2.30;;
53751;SDS011;41095;53.090;6.692;2022-09-09T10:27:47;5.63;;;2.40;;
53751;SDS011;41095;53.090;6.692;2022-09-09T10:33:28;3.60;;;1.67;;
53751;SDS011;41095;53.090;6.692;2022-09-09T10:42:30;2.38;;;1.77;;
53751;SDS011;41095;53.090;6.692;2022-09-09T10:53:32;3.35;;;1.73;;
53751;SDS011;41095;53.090;6.692;2022-09-09T10:56:47;8.75;;;2.22;;
53751;SDS011;41095;53.090;6.692;2022-09-09T10:59:23;4.75;;;2.60;;
53751;SDS011;41095;53.090;6.692;2022-09-09T11:04:46;5.18;;;1.90;;
53751;SDS011;41095;53.090;6.692;2022-09-09T11:07:25;3.75;;;2.15;;
53751;SDS011;41095;53.090;6.692;2022-09-09T11:10:02;2.90;;;2.00;;
53751;SDS011;41095;53.090;6.692;2022-09-09T11:12:32;4.05;;;1.45;;
53751;SDS011;41095;53.090;6.692;2022-09-09T11:15:25;3.80;;;1.88;;
53751;SDS011;41095;53.090;6.692;2022-09-09T11:18:05;5.70;;;1.98;;
53751;SDS011;41095;53.090;6.692;2022-09-09T11:20:43;3.55;;;2.20;;
53751;SDS011;41095;53.090;6.692;2022-09-09T11:23:26;3.58;;;1.90;;
53751;SDS011;41095;53.090;6.692;2022-09-09T11:26:05;3.03;;;1.58;;
53751;SDS011;41095;53.090;6.692;2022-09-09T11:28:51;4.53;;;2.05;;
53751;SDS011;41095;53.090;6.692;2022-09-09T11:35:02;2.45;;;1.70;;
53751;SDS011;41095;53.090;6.692;2022-09-09T11:41:01;4.70;;;1.70;;
53751;SDS011;41095;53.090;6.692;2022-09-09T11:43:43;4.32;;;2.08;;
53751;SDS011;41095;53.090;6.692;2022-09-09T11:46:20;2.92;;;1.77;;
53751;SDS011;41095;53.090;6.692;2022-09-09T11:51:54;3.00;;;1.63;;
53751;SDS011;41095;53.090;6.692;2022-09-09T11:56:56;3.13;;;2.40;;
53751;SDS011;41095;53.090;6.692;2022-09-09T11:59:30;5.05;;;1.70;;
53751;SDS011;41095;53.090;6.692;2022-09-09T12:05:07;2.72;;;1.50;;
53751;SDS011;41095;53.090;6.692;2022-09-09T12:07:51;3.13;;;1.90;;
53751;SDS011;41095;53.090;6.692;2022-09-09T12:13:18;3.00;;;1.65;;
53751;SDS011;41095;53.090;6.692;2022-09-09T12:15:49;6.90;;;1.85;;
53751;SDS011;41095;53.090;6.692;2022-09-09T12:27:28;6.28;;;1.80;;
53751;SDS011;41095;53.090;6.692;2022-09-09T12:30:07;3.38;;;2.78;;
53751;SDS011;41095;53.090;6.692;2022-09-09T12:32:42;12.60;;;1.98;;
53751;SDS011;41095;53.090;6.692;2022-09-09T12:35:22;4.28;;;1.48;;
53751;SDS011;41095;53.090;6.692;2022-09-09T12:37:54;4.57;;;1.63;;
53751;SDS011;41095;53.090;6.692;2022-09-09T12:40:36;5.18;;;1.85;;
53751;SDS011;41095;53.090;6.692;2022-09-09T12:43:02;2.10;;;1.40;;
53751;SDS011;41095;53.090;6.692;2022-09-09T12:46:03;3.58;;;1.80;;
53751;SDS011;41095;53.090;6.692;2022-09-09T12:48:38;2.22;;;1.48;;
53751;SDS011;41095;53.090;6.692;2022-09-09T12:51:16;3.80;;;1.50;;
53751;SDS011;41095;53.090;6.692;2022-09-09T12:53:52;3.92;;;1.90;;
53751;SDS011;41095;53.090;6.692;2022-09-09T12:56:24;7.35;;;1.90;;
53751;SDS011;41095;53.090;6.692;2022-09-09T12:59:03;2.88;;;1.98;;
53751;SDS011;41095;53.090;6.692;2022-09-09T13:01:32;3.35;;;1.70;;
53751;SDS011;41095;53.090;6.692;2022-09-09T13:04:19;3.40;;;1.52;;
53751;SDS011;41095;53.090;6.692;2022-09-09T13:06:47;3.60;;;1.30;;
53751;SDS011;41095;53.090;6.692;2022-09-09T13:09:20;4.57;;;1.73;;
53751;SDS011;41095;53.090;6.692;2022-09-09T13:11:55;5.03;;;2.10;;
53751;SDS011;41095;53.090;6.692;2022-09-09T13:14:28;2.92;;;1.55;;
53751;SDS011;41095;53.090;6.692;2022-09-09T13:17:48;3.08;;;1.38;;
53751;SDS011;41095;53.090;6.692;2022-09-09T13:20:18;3.33;;;1.40;;
53751;SDS011;41095;53.090;6.692;2022-09-09T13:26:04;2.53;;;1.33;;
53751;SDS011;41095;53.090;6.692;2022-09-09T13:28:33;3.58;;;1.48;;
53751;SDS011;41095;53.090;6.692;2022-09-09T13:33:50;4.75;;;1.48;;
53751;SDS011;41095;53.090;6.692;2022-09-09T13:36:27;2.88;;;1.45;;
53751;SDS011;41095;53.090;6.692;2022-09-09T13:39:00;2.85;;;1.77;;
53751;SDS011;41095;53.090;6.692;2022-09-09T13:41:43;6.28;;;1.48;;
53751;SDS011;41095;53.090;6.692;2022-09-09T13:44:21;6.45;;;1.35;;
53751;SDS011;41095;53.090;6.692;2022-09-09T13:47:04;3.70;;;0.82;;
53751;SDS011;41095;53.090;6.692;2022-09-09T13:49:32;1.75;;;1.27;;
53751;SDS011;41095;53.090;6.692;2022-09-09T13:54:51;2.15;;;0.90;;
53751;SDS011;41095;53.090;6.692;2022-09-09T13:57:24;2.20;;;1.02;;
53751;SDS011;41095;53.090;6.692;2022-09-09T13:59:53;2.60;;;0.88;;
53751;SDS011;41095;53.090;6.692;2022-09-09T14:03:04;2.88;;;1.17;;
53751;SDS011;41095;53.090;6.692;2022-09-09T14:05:41;1.83;;;1.45;;
53751;SDS011;41095;53.090;6.692;2022-09-09T14:08:16;2.53;;;1.38;;
53751;SDS011;41095;53.090;6.692;2022-09-09T14:10:56;4.75;;;1.40;;
53751;SDS011;41095;53.090;6.692;2022-09-09T14:13:22;4.05;;;1.48;;
53751;SDS011;41095;53.090;6.692;2022-09-09T14:15:50;2.17;;;1.48;;
53751;SDS011;41095;53.090;6.692;2022-09-09T14:18:24;2.53;;;1.50;;
53751;SDS011;41095;53.090;6.692;2022-09-09T14:20:50;2.07;;;1.53;;
53751;SDS011;41095;53.090;6.692;2022-09-09T14:23:24;3.83;;;1.90;;
53751;SDS011;41095;53.090;6.692;2022-09-09T14:25:52;4.15;;;1.70;;
53751;SDS011;41095;53.090;6.692;2022-09-09T14:28:17;4.35;;;1.75;;
53751;SDS011;41095;53.090;6.692;2022-09-09T14:30:49;3.67;;;2.25;;
53751;SDS011;41095;53.090;6.692;2022-09-09T14:33:16;6.90;;;2.30;;
53751;SDS011;41095;53.090;6.692;2022-09-09T14:35:42;6.30;;;2.53;;
53751;SDS011;41095;53.090;6.692;2022-09-09T14:38:38;4.82;;;2.00;;
53751;SDS011;41095;53.090;6.692;2022-09-09T14:41:11;4.18;;;2.67;;
53751;SDS011;41095;53.090;6.692;2022-09-09T14:43:42;3.92;;;2.33;;
53751;SDS011;41095;53.090;6.692;2022-09-09T14:46:09;2.17;;;1.98;;
53751;SDS011;41095;53.090;6.692;2022-09-09T14:48:45;7.38;;;2.28;;
53751;SDS011;41095;53.090;6.692;2022-09-09T14:51:17;4.88;;;2.10;;
53751;SDS011;41095;53.090;6.692;2022-09-09T14:53:54;4.13;;;2.00;;
53751;SDS011;41095;53.090;6.692;2022-09-09T14:56:23;2.03;;;1.83;;
53751;SDS011;41095;53.090;6.692;2022-09-09T14:58:55;3.45;;;1.98;;
53751;SDS011;41095;53.090;6.692;2022-09-09T15:01:23;6.18;;;2.72;;
53751;SDS011;41095;53.090;6.692;2022-09-09T15:03:59;4.30;;;1.70;;
53751;SDS011;41095;53.090;6.692;2022-09-09T15:06:36;3.30;;;1.42;;
53751;SDS011;41095;53.090;6.692;2022-09-09T15:09:20;1.83;;;1.30;;
53751;SDS011;41095;53.090;6.692;2022-09-09T15:12:04;1.65;;;1.08;;
53751;SDS011;41095;53.090;6.692;2022-09-09T15:14:30;1.63;;;1.13;;
53751;SDS011;41095;53.090;6.692;2022-09-09T15:16:56;4.68;;;1.30;;
53751;SDS011;41095;53.090;6.692;2022-09-09T15:19:21;1.35;;;0.80;;
53751;SDS011;41095;53.090;6.692;2022-09-09T15:21:53;2.00;;;0.70;;
53751;SDS011;41095;53.090;6.692;2022-09-09T15:24:19;1.50;;;1.13;;
53751;SDS011;41095;53.090;6.692;2022-09-09T15:26:45;0.80;;;0.80;;
53751;SDS011;41095;53.090;6.692;2022-09-09T15:29:12;2.58;;;1.25;;
53751;SDS011;41095;53.090;6.692;2022-09-09T15:31:38;4.40;;;1.10;;
53751;SDS011;41095;53.090;6.692;2022-09-09T15:34:06;2.85;;;1.10;;
53751;SDS011;41095;53.090;6.692;2022-09-09T15:36:35;1.85;;;1.30;;
53751;SDS011;41095;53.090;6.692;2022-09-09T15:39:06;5.05;;;1.17;;
53751;SDS011;41095;53.090;6.692;2022-09-09T15:41:42;1.65;;;1.30;;
53751;SDS011;41095;53.090;6.692;2022-09-09T15:44:10;1.88;;;1.15;;
53751;SDS011;41095;53.090;6.692;2022-09-09T15:49:26;1.15;;;1.05;;
53751;SDS011;41095;53.090;6.692;2022-09-09T15:54:37;1.52;;;1.40;;
53751;SDS011;41095;53.090;6.692;2022-09-09T15:57:06;2.25;;;1.00;;
53751;SDS011;41095;53.090;6.692;2022-09-09T15:59:36;2.15;;;1.30;;
53751;SDS011;41095;53.090;6.692;2022-09-09T16:02:02;1.50;;;1.40;;
53751;SDS011;41095;53.090;6.692;2022-09-09T16:04:36;2.97;;;1.00;;
53751;SDS011;41095;53.090;6.692;2022-09-09T16:07:20;2.50;;;1.20;;
53751;SDS011;41095;53.090;6.692;2022-09-09T16:09:48;2.05;;;1.20;;
53751;SDS011;41095;53.090;6.692;2022-09-09T16:12:17;2.20;;;1.00;;
53751;SDS011;41095;53.090;6.692;2022-09-09T16:14:45;3.28;;;1.45;;
53751;SDS011;41095;53.090;6.692;2022-09-09T16:17:18;3.13;;;1.10;;
53751;SDS011;41095;53.090;6.692;2022-09-09T16:19:54;2.92;;;1.02;;
53751;SDS011;41095;53.090;6.692;2022-09-09T16:22:20;2.72;;;1.38;;
53751;SDS011;41095;53.090;6.692;2022-09-09T16:24:55;1.88;;;1.63;;
53751;SDS011;41095;53.090;6.692;2022-09-09T16:27:33;4.05;;;1.20;;
53751;SDS011;41095;53.090;6.692;2022-09-09T16:30:03;1.05;;;1.00;;
53751;SDS011;41095;53.090;6.692;2022-09-09T16:32:46;2.75;;;1.63;;
53751;SDS011;41095;53.090;6.692;2022-09-09T16:35:11;1.65;;;1.42;;
53751;SDS011;41095;53.090;6.692;2022-09-09T16:37:37;1.55;;;1.38;;
53751;SDS011;41095;53.090;6.692;2022-09-09T16:40:12;4.22;;;1.38;;
53751;SDS011;41095;53.090;6.692;2022-09-09T16:42:42;2.90;;;1.83;;
53751;SDS011;41095;53.090;6.692;2022-09-09T16:45:15;2.08;;;1.13;;
53751;SDS011;41095;53.090;6.692;2022-09-09T16:47:40;3.10;;;1.48;;
53751;SDS011;41095;53.090;6.692;2022-09-09T16:50:06;3.00;;;1.50;;
53751;SDS011;41095;53.090;6.692;2022-09-09T16:52:38;4.15;;;1.80;;
53751;SDS011;41095;53.090;6.692;2022-09-09T16:55:05;1.60;;;1.50;;
53751;SDS011;41095;53.090;6.692;2022-09-09T16:57:32;2.45;;;1.17;;
53751;SDS011;41095;53.090;6.692;2022-09-09T16:59:59;2.92;;;1.70;;
53751;SDS011;41095;53.090;6.692;2022-09-09T17:02:44;3.72;;;1.58;;
53751;SDS011;41095;53.090;6.692;2022-09-09T17:05:14;3.25;;;1.50;;
53751;SDS011;41095;53.090;6.692;2022-09-09T17:07:40;3.30;;;1.70;;
53751;SDS011;41095;53.090;6.692;2022-09-09T17:10:12;3.10;;;1.40;;
53751;SDS011;41095;53.090;6.692;2022-09-09T17:12:46;3.22;;;1.40;;
53751;SDS011;41095;53.090;6.692;2022-09-09T17:15:14;2.78;;;1.40;;
53751;SDS011;41095;53.090;6.692;2022-09-09T17:17:42;2.35;;;1.50;;